createdAt,value
2022-11-17T00:02:29.531Z,9.70
2022-11-17T00:04:58.746Z,9.60
2022-11-17T00:07:25.632Z,9.50
2022-11-17T00:09:52.501Z,9.50
2022-11-17T00:12:40.934Z,9.50
2022-11-17T00:15:16.384Z,9.50
2022-11-17T00:17:43.264Z,9.50
2022-11-17T00:20:29.696Z,9.50
2022-11-17T00:22:56.495Z,9.50
2022-11-17T00:25:23.536Z,9.40
2022-11-17T00:27:50.393Z,9.40
2022-11-17T00:30:35.806Z,9.40
2022-11-17T00:33:22.706Z,9.40
2022-11-17T00:35:54.403Z,9.40
2022-11-17T00:38:21.584Z,9.40
2022-11-17T00:40:48.425Z,9.50
2022-11-17T00:43:15.205Z,9.50
2022-11-17T00:45:42.082Z,9.50
2022-11-17T00:48:09.026Z,9.50
2022-11-17T00:50:35.851Z,9.50
2022-11-17T00:53:02.591Z,9.50
2022-11-17T00:55:29.372Z,9.60
2022-11-17T00:57:56.182Z,9.60
2022-11-17T01:00:28.974Z,9.60
2022-11-17T01:02:55.756Z,9.60
2022-11-17T01:05:22.415Z,9.60
2022-11-17T01:07:49.072Z,9.70
2022-11-17T01:10:15.938Z,9.70
2022-11-17T01:12:42.601Z,9.70
2022-11-17T01:15:09.914Z,9.70
2022-11-17T01:17:36.648Z,9.70
2022-11-17T01:20:03.765Z,9.70
2022-11-17T01:22:30.464Z,9.70
2022-11-17T01:24:57.189Z,9.70
2022-11-17T01:27:23.932Z,9.70
2022-11-17T01:29:50.645Z,9.70
2022-11-17T01:32:17.357Z,9.70
2022-11-17T01:34:44.113Z,9.80
2022-11-17T01:37:19.589Z,9.70
2022-11-17T01:39:46.846Z,9.80
2022-11-17T01:42:16.345Z,9.80
2022-11-17T01:44:52.001Z,9.80
2022-11-17T01:47:24.600Z,9.80
2022-11-17T01:49:56.129Z,9.80
2022-11-17T01:52:24.413Z,9.70
2022-11-17T01:54:52.532Z,9.80
2022-11-17T01:57:24.647Z,9.80
2022-11-17T01:59:57.918Z,9.80
2022-11-17T02:02:27.744Z,9.80
2022-11-17T02:05:20.759Z,9.80
2022-11-17T02:08:02.071Z,9.80
2022-11-17T02:27:08.247Z,9.80
2022-11-17T02:30:08.863Z,9.90
2022-11-17T02:32:54.279Z,9.90
2022-11-17T02:35:37.714Z,9.90
2022-11-17T02:38:14.549Z,9.80
2022-11-17T02:40:47.274Z,9.80
2022-11-17T02:43:37.759Z,9.80
2022-11-17T02:50:11.348Z,9.80
2022-11-17T02:52:38.425Z,9.80
2022-11-17T02:55:09.181Z,9.80
2022-11-17T02:57:38.147Z,9.80
2022-11-17T03:00:14.306Z,9.80
2022-11-17T03:02:56.073Z,9.80
2022-11-17T03:05:25.657Z,9.80
2022-11-17T03:07:58.399Z,9.80
2022-11-17T03:10:49.919Z,9.80
2022-11-17T03:13:25.124Z,9.80
2022-11-17T03:28:01.745Z,9.80
2022-11-17T03:30:56.105Z,9.90
2022-11-17T03:41:22.627Z,10.00
2022-11-17T03:48:40.984Z,10.10
2022-11-17T03:54:49.094Z,10.10
2022-11-17T03:57:33.721Z,10.20
2022-11-17T04:00:27.233Z,10.20
2022-11-17T04:03:47.229Z,10.20
2022-11-17T04:06:31.304Z,10.20
2022-11-17T04:09:03.776Z,10.20
2022-11-17T04:21:52.339Z,10.50
2022-11-17T04:34:43.849Z,10.50
2022-11-17T05:19:26.773Z,10.00
2022-11-17T05:25:58.368Z,10.00
2022-11-17T05:32:00.625Z,9.90
2022-11-17T05:34:27.903Z,9.90
2022-11-17T05:36:54.868Z,9.90
2022-11-17T05:39:29.292Z,10.00
2022-11-17T05:57:40.909Z,10.00
2022-11-17T06:17:02.438Z,10.10
2022-11-17T06:19:34.708Z,10.20
2022-11-17T06:22:12.341Z,10.20
2022-11-17T06:24:40.702Z,10.20
2022-11-17T06:27:22.674Z,10.20
2022-11-17T06:29:50.005Z,10.20
2022-11-17T06:32:18.756Z,10.20
2022-11-17T06:34:54.843Z,10.20
2022-11-17T06:37:24.998Z,10.20
2022-11-17T06:39:52.203Z,10.20
2022-11-17T06:42:18.933Z,10.10
2022-11-17T06:44:45.623Z,10.10
2022-11-17T06:47:12.293Z,10.20
2022-11-17T06:49:39.142Z,10.20
2022-11-17T06:52:05.801Z,10.10
2022-11-17T06:54:32.513Z,10.10
2022-11-17T06:56:59.330Z,10.10
2022-11-17T06:59:26.118Z,10.10
2022-11-17T07:01:52.961Z,10.10
2022-11-17T07:04:20.020Z,10.10
2022-11-17T07:06:46.771Z,10.00
2022-11-17T07:09:13.486Z,10.00
2022-11-17T07:11:40.190Z,10.00
2022-11-17T07:14:06.956Z,10.00
2022-11-17T07:16:33.760Z,9.90
2022-11-17T07:19:03.629Z,9.90
2022-11-17T07:21:30.832Z,9.90
2022-11-17T07:23:57.654Z,9.90
2022-11-17T07:26:24.550Z,9.90
2022-11-17T07:28:51.302Z,9.90
2022-11-17T07:31:18.067Z,9.90
2022-11-17T07:33:44.860Z,9.90
2022-11-17T07:36:14.554Z,9.80
2022-11-17T07:38:41.611Z,9.80
2022-11-17T07:41:13.393Z,9.80
2022-11-17T07:43:40.200Z,9.80
2022-11-17T07:46:10.368Z,9.90
2022-11-17T07:48:37.604Z,9.90
2022-11-17T07:51:05.802Z,9.80
2022-11-17T07:53:34.953Z,9.80
2022-11-17T07:56:06.312Z,9.80
2022-11-17T07:58:33.936Z,9.90
2022-11-17T08:01:05.730Z,9.80
2022-11-17T08:03:32.703Z,9.90
2022-11-17T08:06:06.806Z,9.80
2022-11-17T08:08:34.509Z,9.80
2022-11-17T08:11:06.266Z,9.80
2022-11-17T08:13:33.806Z,9.80
2022-11-17T08:16:00.907Z,9.80
2022-11-17T08:18:29.097Z,9.80
2022-11-17T08:21:08.674Z,9.80
2022-11-17T08:23:35.945Z,9.80
2022-11-17T08:26:03.626Z,9.90
2022-11-17T08:28:31.014Z,9.90
2022-11-17T08:31:00.534Z,9.90
2022-11-17T08:33:27.455Z,10.00
2022-11-17T08:36:00.808Z,10.00
2022-11-17T08:38:29.374Z,10.10
2022-11-17T08:41:02.861Z,10.10
2022-11-17T08:43:29.949Z,10.10
2022-11-17T08:45:57.162Z,10.10
2022-11-17T08:48:24.063Z,10.10
2022-11-17T08:50:51.454Z,10.10
2022-11-17T08:53:20.087Z,10.10
2022-11-17T08:55:47.154Z,10.10
2022-11-17T08:58:13.939Z,10.10
2022-11-17T09:00:41.669Z,10.10
2022-11-17T09:03:10.631Z,10.20
2022-11-17T09:05:40.116Z,10.20
2022-11-17T09:08:38.035Z,10.30
2022-11-17T09:10:55.163Z,10.30
2022-11-17T09:13:21.995Z,10.30
2022-11-17T09:15:48.755Z,10.30
2022-11-17T09:18:15.607Z,10.20
2022-11-17T09:20:45.827Z,10.20
2022-11-17T09:23:13.058Z,10.20
2022-11-17T09:25:39.947Z,10.20
2022-11-17T09:28:06.887Z,10.10
2022-11-17T09:30:33.602Z,10.10
2022-11-17T09:33:00.574Z,10.00
2022-11-17T09:35:27.303Z,10.00
2022-11-17T09:37:59.726Z,10.00
2022-11-17T09:40:26.629Z,10.00
2022-11-17T09:42:53.776Z,10.00
2022-11-17T09:45:34.144Z,10.00
2022-11-17T09:48:40.280Z,10.00
2022-11-17T09:51:05.668Z,10.00
2022-11-17T09:53:48.785Z,9.90
2022-11-17T09:56:16.332Z,9.90
2022-11-17T09:58:53.510Z,9.90
2022-11-17T10:05:01.555Z,10.00
2022-11-17T10:07:31.593Z,10.10
2022-11-17T10:10:00.748Z,10.20
2022-11-17T10:12:34.779Z,10.30
2022-11-17T10:15:20.575Z,10.40
2022-11-17T10:17:47.394Z,10.50
2022-11-17T10:20:16.657Z,10.50
2022-11-17T10:22:44.024Z,10.60
2022-11-17T10:25:22.407Z,10.50
2022-11-17T10:27:54.006Z,10.50
2022-11-17T10:30:23.555Z,10.50
2022-11-17T10:32:52.804Z,10.50
2022-11-17T10:35:27.438Z,10.50
2022-11-17T10:37:56.021Z,10.50
2022-11-17T10:40:32.070Z,10.50
2022-11-17T10:43:14.171Z,10.50
2022-11-17T10:45:53.238Z,10.50
2022-11-17T10:48:27.994Z,10.50
2022-11-17T10:51:09.349Z,10.50
2022-11-17T10:53:46.139Z,10.40
2022-11-17T10:56:21.492Z,10.30
2022-11-17T10:59:13.872Z,10.20
2022-11-17T11:01:46.207Z,10.10
2022-11-17T11:04:33.714Z,10.00
2022-11-17T11:07:07.909Z,10.00
2022-11-17T11:09:40.004Z,10.00
2022-11-17T11:12:14.627Z,10.00
2022-11-17T11:14:48.954Z,10.00
2022-11-17T11:17:17.572Z,10.10
2022-11-17T11:19:52.593Z,10.10
2022-11-17T11:22:38.081Z,10.10
2022-11-17T11:25:29.052Z,10.00
2022-11-17T11:28:24.026Z,10.00
2022-11-17T11:34:40.459Z,9.90
2022-11-17T11:37:13.607Z,9.80
2022-11-17T11:40:23.058Z,9.80
2022-11-17T11:43:11.103Z,9.90
2022-11-17T11:45:45.323Z,9.90
2022-11-17T11:48:26.588Z,9.80
2022-11-17T11:51:05.230Z,9.90
2022-11-17T11:53:35.440Z,9.90
2022-11-17T11:56:11.272Z,9.90
2022-11-17T11:58:44.362Z,9.90
2022-11-17T12:01:12.809Z,10.00
2022-11-17T12:03:56.262Z,9.90
2022-11-17T12:06:57.761Z,10.00
2022-11-17T12:09:53.918Z,10.10
2022-11-17T12:12:32.618Z,10.20
2022-11-17T12:15:37.011Z,10.20
2022-11-17T12:18:28.852Z,10.20
2022-11-17T12:21:06.181Z,10.10
2022-11-17T12:23:35.336Z,10.10
2022-11-17T12:26:03.056Z,10.10
2022-11-17T12:28:36.146Z,10.10
2022-11-17T12:31:24.444Z,10.10
2022-11-17T12:34:30.541Z,10.20
2022-11-17T12:37:42.957Z,10.10
2022-11-17T12:40:58.453Z,10.20
2022-11-17T12:44:19.483Z,10.20
2022-11-17T12:46:48.246Z,10.20
2022-11-17T12:49:27.374Z,10.10
2022-11-17T12:52:05.917Z,10.00
2022-11-17T12:54:47.855Z,10.00
2022-11-17T12:57:18.982Z,9.90
2022-11-17T13:00:05.613Z,9.90
2022-11-17T13:02:53.409Z,9.80
2022-11-17T13:05:23.345Z,9.80
2022-11-17T13:07:50.291Z,9.80
2022-11-17T13:10:42.171Z,9.80
2022-11-17T13:13:25.356Z,9.90
2022-11-17T13:15:54.162Z,9.90
2022-11-17T13:18:36.533Z,9.90
2022-11-17T13:21:04.894Z,10.00
2022-11-17T13:23:33.627Z,10.10
2022-11-17T13:26:21.194Z,10.10
2022-11-17T13:28:49.302Z,10.10
2022-11-17T13:31:21.091Z,10.10
2022-11-17T13:34:12.947Z,10.10
2022-11-17T13:37:00.321Z,10.10
2022-11-17T13:39:28.074Z,10.10
2022-11-17T13:41:56.582Z,10.10
2022-11-17T13:44:25.506Z,10.10
2022-11-17T13:46:52.260Z,10.20
2022-11-17T13:49:34.728Z,10.20
2022-11-17T13:52:04.004Z,10.30
2022-11-17T13:54:31.360Z,10.40
2022-11-17T13:57:05.479Z,10.40
2022-11-17T13:59:35.926Z,10.50
2022-11-17T14:02:20.647Z,10.60
2022-11-17T14:05:15.280Z,10.70
2022-11-17T14:07:43.464Z,10.80
2022-11-17T14:10:22.591Z,10.80
2022-11-17T14:12:53.852Z,10.90
2022-11-17T14:15:26.609Z,10.90
2022-11-17T14:18:17.444Z,10.90
2022-11-17T14:20:44.228Z,10.90
2022-11-17T14:23:10.960Z,10.80
2022-11-17T14:25:43.296Z,10.80
2022-11-17T14:28:16.592Z,10.80
2022-11-17T14:30:43.695Z,10.90
2022-11-17T14:33:13.591Z,10.90
2022-11-17T14:35:41.122Z,10.90
2022-11-17T14:38:16.042Z,10.80
2022-11-17T14:40:42.829Z,10.80
2022-11-17T14:43:09.648Z,10.80
2022-11-17T14:45:36.727Z,10.80
2022-11-17T14:48:08.263Z,10.80
2022-11-17T14:50:35.000Z,10.80
2022-11-17T14:53:01.970Z,10.80
2022-11-17T14:55:28.738Z,10.80
2022-11-17T14:57:55.610Z,10.90
2022-11-17T15:00:22.520Z,10.80
2022-11-17T15:02:49.383Z,10.80
2022-11-17T15:05:16.219Z,10.80
2022-11-17T15:07:43.478Z,10.80
2022-11-17T15:10:10.826Z,10.90
2022-11-17T15:12:37.940Z,10.90
2022-11-17T15:15:05.496Z,10.80
2022-11-17T15:17:33.138Z,10.80
2022-11-17T15:19:59.948Z,10.80
2022-11-17T15:22:26.788Z,10.80
2022-11-17T15:24:53.573Z,10.80
2022-11-17T15:27:20.385Z,10.70
2022-11-17T15:29:47.237Z,10.70
2022-11-17T15:32:14.035Z,10.70
2022-11-17T15:34:40.832Z,10.60
2022-11-17T15:37:07.841Z,10.60
2022-11-17T15:39:34.913Z,10.60
2022-11-17T15:42:01.719Z,10.50
2022-11-17T15:44:29.406Z,10.50
2022-11-17T15:46:56.160Z,10.50
2022-11-17T15:49:22.913Z,10.50
2022-11-17T15:51:49.681Z,10.40
2022-11-17T15:54:20.416Z,10.40
2022-11-17T15:56:47.900Z,10.40
2022-11-17T15:59:15.205Z,10.40
2022-11-17T16:01:42.510Z,10.40
2022-11-17T16:04:11.219Z,10.40
2022-11-17T16:06:41.392Z,10.40
2022-11-17T16:09:09.510Z,10.30
2022-11-17T16:11:37.188Z,10.30
2022-11-17T16:14:04.947Z,10.30
2022-11-17T16:16:34.853Z,10.30
2022-11-17T16:19:02.423Z,10.30
2022-11-17T16:21:29.320Z,10.30
2022-11-17T16:23:57.837Z,10.30
2022-11-17T16:26:27.179Z,10.30
2022-11-17T16:29:02.189Z,10.30
2022-11-17T16:31:31.652Z,10.30
2022-11-17T16:34:04.544Z,10.30
2022-11-17T16:36:36.772Z,10.40
2022-11-17T16:39:20.965Z,10.40
2022-11-17T16:41:50.144Z,10.40
2022-11-17T16:44:18.582Z,10.40
2022-11-17T16:46:48.017Z,10.40
2022-11-17T16:49:17.154Z,10.40
2022-11-17T16:51:48.896Z,10.30
2022-11-17T16:54:16.761Z,10.40
2022-11-17T16:56:43.900Z,10.40
2022-11-17T16:59:12.268Z,10.40
2022-11-17T17:01:39.263Z,10.40
2022-11-17T17:04:07.999Z,10.40
2022-11-17T17:06:37.298Z,10.40
2022-11-17T17:09:07.208Z,10.40
2022-11-17T17:11:35.835Z,10.40
2022-11-17T17:14:05.175Z,10.40
2022-11-17T17:16:34.074Z,10.40
2022-11-17T17:19:04.172Z,10.40
2022-11-17T17:21:31.496Z,10.30
2022-11-17T17:23:58.783Z,10.30
2022-11-17T17:26:28.626Z,10.30
2022-11-17T17:29:03.417Z,10.30
2022-11-17T17:31:35.160Z,10.30
2022-11-17T17:34:03.034Z,10.30
2022-11-17T17:36:30.651Z,10.30
2022-11-17T17:39:01.708Z,10.30
2022-11-17T17:41:34.345Z,10.30
2022-11-17T17:44:14.072Z,10.30
2022-11-17T17:46:42.887Z,10.20
2022-11-17T17:49:10.191Z,10.30
2022-11-17T17:51:40.223Z,10.20
2022-11-17T17:54:07.957Z,10.20
2022-11-17T17:56:35.374Z,10.20
2022-11-17T17:59:03.503Z,10.20
2022-11-17T18:01:35.140Z,10.20
2022-11-17T18:04:15.869Z,10.20
2022-11-17T18:06:47.162Z,10.20
2022-11-17T18:09:15.709Z,10.20
2022-11-17T18:11:50.085Z,10.10
2022-11-17T18:14:21.388Z,10.10
2022-11-17T18:17:17.500Z,10.10
2022-11-17T18:19:46.031Z,10.10
2022-11-17T18:22:13.496Z,10.10
2022-11-17T18:24:49.959Z,10.10
2022-11-17T18:27:17.010Z,10.00
2022-11-17T18:29:44.045Z,10.00
2022-11-17T18:32:18.014Z,9.90
2022-11-17T18:34:45.008Z,9.90
2022-11-17T18:37:11.958Z,9.90
2022-11-17T18:39:38.871Z,9.90
2022-11-17T18:42:05.979Z,9.90
2022-11-17T18:44:33.020Z,9.90
2022-11-17T18:47:03.083Z,9.90
2022-11-17T18:49:31.182Z,9.80
2022-11-17T18:51:58.232Z,9.80
2022-11-17T18:54:25.194Z,9.80
2022-11-17T18:56:52.092Z,9.70
2022-11-17T18:59:19.404Z,9.70
2022-11-17T19:02:08.685Z,9.70
2022-11-17T19:04:35.759Z,9.60
2022-11-17T19:07:02.724Z,9.50
2022-11-17T19:09:29.868Z,9.50
2022-11-17T19:11:56.719Z,9.40
2022-11-17T19:14:23.720Z,9.40
2022-11-17T19:16:50.726Z,9.30
2022-11-17T19:19:17.998Z,9.30
2022-11-17T19:21:45.177Z,9.20
2022-11-17T19:24:12.646Z,9.20
2022-11-17T19:26:40.007Z,9.20
2022-11-17T19:29:15.555Z,9.30
2022-11-17T19:31:44.237Z,9.30
2022-11-17T19:34:11.474Z,9.30
2022-11-17T19:36:38.539Z,9.30
2022-11-17T19:39:05.721Z,9.30
2022-11-17T19:41:34.920Z,9.30
2022-11-17T19:44:06.413Z,9.20
2022-11-17T19:46:34.186Z,9.20
2022-11-17T19:49:00.973Z,9.10
2022-11-17T19:51:33.223Z,9.00
2022-11-17T19:54:06.462Z,9.00
2022-11-17T19:56:33.627Z,8.90
2022-11-17T19:59:00.391Z,8.90
2022-11-17T20:01:28.980Z,8.90
2022-11-17T20:03:57.391Z,8.80
2022-11-17T20:06:29.352Z,8.80
2022-11-17T20:09:00.122Z,8.80
2022-11-17T20:11:28.141Z,8.80
2022-11-17T20:14:04.862Z,8.80
2022-11-17T20:16:32.190Z,8.80
2022-11-17T20:19:01.859Z,8.90
2022-11-17T20:21:29.970Z,8.80
2022-11-17T20:23:59.116Z,8.90
2022-11-17T20:26:32.019Z,8.90
2022-11-17T20:28:59.471Z,8.90
2022-11-17T20:31:29.698Z,8.90
2022-11-17T20:33:59.555Z,8.90
2022-11-17T20:36:27.241Z,8.90
2022-11-17T20:38:59.337Z,8.90
2022-11-17T20:41:26.636Z,8.90
2022-11-17T20:43:55.298Z,8.80
2022-11-17T20:46:23.068Z,8.80
2022-11-17T20:48:50.307Z,8.70
2022-11-17T20:51:19.663Z,8.60
2022-11-17T20:53:46.736Z,8.60
2022-11-17T20:56:16.368Z,8.50
2022-11-17T20:58:43.548Z,8.50
2022-11-17T21:01:16.003Z,8.40
2022-11-17T21:03:43.323Z,8.40
2022-11-17T21:06:10.843Z,8.30
2022-11-17T21:08:39.478Z,8.30
2022-11-17T21:11:09.046Z,8.20
2022-11-17T21:13:37.405Z,8.20
2022-11-17T21:16:08.473Z,8.10
2022-11-17T21:18:36.431Z,8.10
2022-11-17T21:21:08.472Z,8.00
2022-11-17T21:23:36.629Z,8.00
2022-11-17T21:26:25.750Z,8.00
2022-11-17T21:28:52.476Z,7.90
2022-11-17T21:31:21.261Z,7.90
2022-11-17T21:33:51.399Z,7.90
2022-11-17T21:36:18.449Z,7.80
2022-11-17T21:38:46.744Z,7.80
2022-11-17T21:41:16.071Z,7.80
2022-11-17T21:43:44.631Z,7.80
2022-11-17T21:46:17.018Z,7.70
2022-11-17T21:48:44.179Z,7.70
2022-11-17T21:51:19.568Z,7.70
2022-11-17T21:53:47.285Z,7.70
2022-11-17T21:56:14.209Z,7.70
2022-11-17T21:58:41.341Z,7.70
2022-11-17T22:01:14.172Z,7.60
2022-11-17T22:03:42.544Z,7.60
2022-11-17T22:06:14.543Z,7.60
2022-11-17T22:08:42.848Z,7.60
2022-11-17T22:11:34.937Z,7.60
2022-11-17T22:14:15.093Z,7.60
2022-11-17T22:16:45.708Z,7.50
2022-11-17T22:19:14.053Z,7.50
2022-11-17T22:21:42.310Z,7.50
2022-11-17T22:24:10.947Z,7.50
2022-11-17T22:26:40.917Z,7.40
2022-11-17T22:29:11.466Z,7.40
2022-11-17T22:31:38.465Z,7.40
2022-11-17T22:34:05.337Z,7.40
2022-11-17T22:36:32.347Z,7.30
2022-11-17T22:38:59.153Z,7.30
2022-11-17T22:41:26.466Z,7.30
2022-11-17T22:43:55.095Z,7.30
2022-11-17T22:46:24.231Z,7.30
2022-11-17T22:48:51.189Z,7.20
2022-11-17T22:51:38.591Z,7.20
2022-11-17T22:54:06.640Z,7.20
2022-11-17T22:56:34.279Z,7.20
2022-11-17T22:59:01.080Z,7.20
2022-11-17T23:01:27.828Z,7.10
2022-11-17T23:03:54.756Z,7.20
2022-11-17T23:06:22.831Z,7.10
2022-11-17T23:08:50.230Z,7.10
2022-11-17T23:14:05.570Z,7.10
2022-11-17T23:16:33.092Z,7.10
2022-11-17T23:19:00.086Z,7.10
2022-11-17T23:21:26.837Z,7.10
2022-11-17T23:23:53.589Z,7.10
2022-11-17T23:26:20.888Z,7.10
2022-11-17T23:28:47.779Z,7.10
2022-11-17T23:31:16.696Z,7.10
2022-11-17T23:33:46.071Z,7.10
2022-11-17T23:36:18.470Z,7.10
2022-11-17T23:38:46.338Z,7.10
2022-11-17T23:41:15.870Z,7.00
2022-11-17T23:43:43.204Z,7.00
2022-11-17T23:46:15.806Z,7.00
2022-11-17T23:48:43.340Z,6.90
2022-11-17T23:51:24.761Z,6.90
2022-11-17T23:53:51.988Z,6.90
2022-11-17T23:56:22.752Z,6.80
2022-11-17T23:58:51.656Z,6.80
